LFQB

Troyes-Barberey Airport

Airport
ICAO code
LFQB
IATA Code
QYR
Summary
ICAO Region
EUR
ICAO Territory
Location

, Champagne-Ardenne

Serving
Troyes
Elevation
388 ft
Coordinates
48° 19' 20" N , 4° 1' 0" E
Metar
Observation
LFQB 012300Z AUTO 05004KT 9999 BKN018 OVC027 05/03 Q1023
Station
Troyes
Date/Time
2022-12-01 23:00:00
Wind direction
50°
Wind speed
04 kts
Lowest cloud amount
broken clouds
Temperature
5°C
Dew point
3°C
Humidity
86%
QNH
1023 hPa
Weather condition
n/a

Runways

Designator Length Width Surface Rops
5/23 780 100 GRS No/No
18R/36L 900 100 GRS No/No
18/36 1650 30 ASP No/No

Airport map

Aerial View

SKYbrary Partners:

Safety knowledge contributed by: